Time;durP1;ratioP1;P1;durP2;ratioP2;P2;SDS_P1;SDS_P2;PMS_P1;PMS_P2;Temp;Humidity;BMP_temperature;BMP_pressure;BME280_temperature;BME280_humidity;BME280_pressure;Samples;Min_cycle;Max_cycle;Signal;HPM_P1;HPM_P2
2022/01/14 00:02:01;;;;;;;8.33;3.90;;;;;;;0.33;100.00;99040.91;1715043;81;21215;-65
2022/01/14 00:04:27;;;;;;;6.67;3.58;;;;;;;0.33;100.00;99049.56;1718134;82;21111;-63
2022/01/14 00:06:54;;;;;;;5.17;2.80;;;;;;;0.32;100.00;99046.59;1703780;82;21156;-64
2022/01/14 00:09:20;;;;;;;5.60;3.08;;;;;;;0.34;100.00;99040.37;1699022;82;21527;-65
2022/01/14 00:11:52;;;;;;;6.05;4.22;;;;;;;0.36;100.00;99047.68;1715796;82;21078;-64
2022/01/14 00:14:23;;;;;;;5.55;3.12;;;;;;;0.36;100.00;99047.68;1713758;82;20994;-61
2022/01/14 00:16:50;;;;;;;4.55;3.60;;;;;;;0.35;100.00;99049.59;1710460;82;21075;-64
2022/01/14 00:19:17;;;;;;;7.62;3.10;;;;;;;0.37;100.00;99039.84;1713252;82;21137;-64
2022/01/14 00:21:44;;;;;;;5.03;3.20;;;;;;;0.40;100.00;99043.91;1711452;82;21134;-65
2022/01/14 00:31:38;;;;;;;5.35;3.40;;;;;;;0.40;100.00;99050.15;1720126;82;21200;-64
2022/01/14 00:32:19;;;;;;;3.75;2.62;;;;;;;0.43;100.00;99037.95;1716419;80;21185;-65
2022/01/14 00:34:42;;;;;;;5.15;2.83;;;;;;;0.43;100.00;99033.88;1689643;83;21113;-64
2022/01/14 00:37:08;;;;;;;3.30;2.80;;;;;;;0.44;100.00;99033.64;1711421;82;20983;-65
2022/01/14 00:39:35;;;;;;;6.15;3.15;;;;;;;0.46;100.00;99035.53;1736907;81;21020;-65
2022/01/14 00:42:02;;;;;;;6.95;3.37;;;;;;;0.46;100.00;99021.97;1749861;80;21149;-63
2022/01/14 00:44:29;;;;;;;7.00;3.08;;;;;;;0.47;100.00;99023.63;1736932;81;21131;-65
2022/01/14 00:46:57;;;;;;;7.67;2.92;;;;;;;0.50;100.00;99019.55;1730703;80;21063;-65
2022/01/14 00:49:23;;;;;;;3.80;2.95;;;;;;;0.52;100.00;99011.97;1724550;81;21086;-65
2022/01/14 00:51:49;;;;;;;3.95;2.67;;;;;;;0.54;100.00;99030.69;1733933;80;22307;-65
2022/01/14 00:54:17;;;;;;;4.80;2.80;;;;;;;0.56;100.00;99024.47;1708603;80;21487;-61
2022/01/14 00:59:16;;;;;;;5.78;2.95;;;;;;;0.59;100.00;99021.22;1740593;81;21305;-65
2022/01/14 01:01:48;;;;;;;4.83;3.08;;;;;;;0.61;100.00;99019.06;1719204;81;21614;-67
2022/01/14 01:04:18;;;;;;;5.08;2.95;;;;;;;0.61;100.00;99002.79;1717987;80;21066;-63
2022/01/14 01:06:45;;;;;;;4.85;2.92;;;;;;;0.63;100.00;98991.14;1719943;81;20984;-65
2022/01/14 01:09:12;;;;;;;5.10;2.85;;;;;;;0.63;100.00;99010.66;1723909;80;21309;-65
2022/01/14 01:11:45;;;;;;;3.98;2.47;;;;;;;0.63;100.00;98994.38;1685653;83;21020;-64
2022/01/14 01:14:16;;;;;;;6.42;2.98;;;;;;;0.64;100.00;98992.77;1720101;82;21068;-63
2022/01/14 01:16:41;;;;;;;4.87;2.55;;;;;;;0.64;100.00;98995.47;1716404;82;21033;-65
2022/01/14 01:19:10;;;;;;;6.15;3.00;;;;;;;0.64;100.00;98977.84;1722355;81;21143;-66
2022/01/14 01:21:37;;;;;;;3.98;2.35;;;;;;;0.66;100.00;98981.64;1724104;82;21150;-64
2022/01/14 01:24:05;;;;;;;4.83;2.80;;;;;;;0.66;100.00;98965.37;1711214;82;21076;-64
2022/01/14 01:26:36;;;;;;;5.97;2.35;;;;;;;0.70;100.00;98958.34;1698722;82;21047;-63
2022/01/14 01:31:41;;;;;;;4.33;2.55;;;;;;;0.70;100.00;98942.86;1714279;81;21133;-62
2022/01/14 01:34:17;;;;;;;4.12;2.40;;;;;;;0.71;100.00;98941.80;1716083;81;21442;-63
2022/01/14 01:36:46;;;;;;;4.12;2.70;;;;;;;0.72;100.00;98939.34;1715711;82;21531;-65
2022/01/14 01:39:15;;;;;;;5.12;2.37;;;;;;;0.72;100.00;98931.21;1710389;82;21008;-65
2022/01/14 01:41:46;;;;;;;4.83;2.30;;;;;;;0.72;100.00;98925.78;1709137;82;21670;-66
2022/01/14 01:44:14;;;;;;;4.17;2.90;;;;;;;0.73;100.00;98921.19;1708874;82;21029;-63
2022/01/14 01:46:42;;;;;;;5.30;2.47;;;;;;;0.75;100.00;98916.84;1714447;82;21147;-65
2022/01/14 01:49:09;;;;;;;4.25;2.30;;;;;;;0.76;100.00;98896.77;1720100;81;21536;-64
2022/01/14 01:51:37;;;;;;;3.75;2.37;;;;;;;0.79;100.00;98892.15;1672232;83;21761;-63
2022/01/14 01:54:03;;;;;;;3.80;2.17;;;;;;;0.78;100.00;98864.23;1718509;81;21086;-63
2022/01/14 01:56:31;;;;;;;3.55;2.40;;;;;;;0.77;100.00;98852.30;1692158;83;21052;-65
2022/01/14 01:58:58;;;;;;;4.22;2.58;;;;;;;0.77;100.00;98837.38;1703021;82;21162;-66
2022/01/14 02:01:24;;;;;;;5.25;3.00;;;;;;;0.77;100.00;98825.17;1705554;82;21250;-64
2022/01/14 02:03:54;;;;;;;5.90;2.67;;;;;;;0.75;100.00;98834.91;1714595;82;21096;-64
2022/01/14 02:06:21;;;;;;;6.40;3.72;;;;;;;0.74;100.00;98833.30;1728501;81;21158;-66
2022/01/14 02:08:49;;;;;;;6.62;3.22;;;;;;;0.74;100.00;98829.23;1711684;81;21015;-66
2022/01/14 02:11:17;;;;;;;5.47;2.80;;;;;;;0.73;100.00;98828.41;1725282;81;20992;-65
2022/01/14 02:13:45;;;;;;;4.72;3.17;;;;;;;0.73;100.00;98819.47;1705641;82;21169;-62
2022/01/14 02:16:19;;;;;;;4.45;3.22;;;;;;;0.73;100.00;98831.11;1677277;83;21644;-64
2022/01/14 02:18:59;;;;;;;5.87;3.22;;;;;;;0.73;100.00;98840.61;1695247;82;21931;-66
2022/01/14 02:26:50;;;;;;;6.15;3.20;;;;;;;0.75;100.00;98843.05;1698969;82;21205;-64
2022/01/14 02:29:17;;;;;;;4.28;2.55;;;;;;;0.77;100.00;98830.59;1715481;81;21055;-63
2022/01/14 02:31:44;;;;;;;3.70;2.50;;;;;;;0.78;100.00;98828.14;1704046;81;21078;-66
2022/01/14 02:34:14;;;;;;;5.20;2.30;;;;;;;0.77;100.00;98831.39;1701764;82;21565;-60
2022/01/14 02:36:42;;;;;;;4.87;2.52;;;;;;;0.78;100.00;98824.08;1698246;81;21196;-63
2022/01/14 02:39:10;;;;;;;3.25;2.40;;;;;;;0.80;100.00;98824.06;1703284;81;21079;-63
2022/01/14 02:41:38;;;;;;;6.92;2.85;;;;;;;0.81;100.00;98816.75;1710959;83;21051;-62
2022/01/14 02:44:09;;;;;;;4.03;2.47;;;;;;;0.83;100.00;98807.27;1703214;83;21187;-63
2022/01/14 02:46:41;;;;;;;3.87;2.75;;;;;;;0.84;100.00;98805.34;1695164;83;21060;-63
2022/01/14 02:49:05;;;;;;;4.22;2.92;;;;;;;0.86;100.00;98804.53;1702515;83;21147;-62
2022/01/14 02:51:33;;;;;;;6.17;2.87;;;;;;;0.85;100.00;98793.42;1703311;81;21040;-64
2022/01/14 02:54:12;;;;;;;4.65;3.12;;;;;;;0.85;100.00;98781.22;1686070;82;21045;-62
2022/01/14 02:56:32;;;;;;;3.60;2.67;;;;;;;0.85;100.00;98775.23;1700021;82;21590;-66
2022/01/14 02:59:00;;;;;;;4.75;2.80;;;;;;;0.89;100.00;98769.28;1701148;80;21095;-66
2022/01/14 03:01:26;;;;;;;6.10;3.22;;;;;;;0.88;100.00;98767.64;1703114;82;21146;-65
2022/01/14 03:03:57;;;;;;;5.28;3.00;;;;;;;0.88;100.00;98752.72;1708656;81;21008;-64
2022/01/14 03:06:25;;;;;;;5.00;2.98;;;;;;;0.88;100.00;98745.40;1710010;82;21090;-63
2022/01/14 03:08:51;;;;;;;5.22;3.15;;;;;;;0.87;100.00;98742.40;1702349;82;21099;-64
2022/01/14 03:11:51;;;;;;;6.65;3.40;;;;;;;0.86;100.00;98742.14;1678065;84;21137;-61
2022/01/14 03:14:22;;;;;;;6.62;3.70;;;;;;;0.86;100.00;98748.92;1696003;82;21442;-62
2022/01/14 03:16:53;;;;;;;5.42;3.20;;;;;;;0.84;100.00;98745.13;1705669;81;20992;-62
2022/01/14 03:19:25;;;;;;;6.30;3.58;;;;;;;0.84;100.00;98749.20;1687968;83;21082;-63
2022/01/14 03:22:03;;;;;;;5.60;3.17;;;;;;;0.85;100.00;98741.88;1699485;83;21150;-65
2022/01/14 03:25:35;;;;;;;5.20;3.42;;;;;;;0.85;100.00;98738.61;1699739;82;21178;-64
2022/01/14 03:26:51;;;;;;;5.08;3.50;;;;;;;0.88;100.00;98729.13;1701899;83;21136;-66
2022/01/14 03:29:18;;;;;;;4.67;3.10;;;;;;;0.88;100.00;98723.70;1697511;83;21066;-65
2022/01/14 03:31:45;;;;;;;4.22;2.92;;;;;;;0.87;100.00;98732.11;1699084;83;21053;-65
2022/01/14 03:34:14;;;;;;;6.22;3.83;;;;;;;0.88;100.00;98710.67;1697425;82;21058;-65
2022/01/14 03:36:40;;;;;;;5.47;3.55;;;;;;;0.89;100.00;98702.81;1705361;83;21070;-63
2022/01/14 03:39:07;;;;;;;4.42;2.85;;;;;;;0.88;100.00;98694.39;1673569;83;21225;-64
2022/01/14 03:41:33;;;;;;;8.65;3.60;;;;;;;0.88;100.00;98684.89;1708813;81;21060;-64
2022/01/14 03:43:59;;;;;;;6.53;2.62;;;;;;;0.87;100.00;98680.00;1710979;83;21107;-65
2022/01/14 03:46:26;;;;;;;4.22;2.75;;;;;;;0.89;100.00;98672.97;1701350;83;21513;-65
2022/01/14 03:48:52;;;;;;;5.22;3.10;;;;;;;0.88;100.00;98667.27;1716489;81;21064;-65
2022/01/14 03:51:22;;;;;;;7.65;3.10;;;;;;;0.86;100.00;98656.69;1712079;82;21130;-64
2022/01/14 03:53:48;;;;;;;7.05;3.55;;;;;;;0.86;100.00;98649.91;1721076;81;21584;-62
2022/01/14 03:56:15;;;;;;;4.42;3.02;;;;;;;0.86;100.00;98629.56;1722412;82;21068;-63
2022/01/14 03:58:42;;;;;;;5.45;3.60;;;;;;;0.85;100.00;98638.23;1725541;81;21024;-65
2022/01/14 04:01:10;;;;;;;4.95;3.33;;;;;;;0.87;100.00;98633.09;1716867;81;21249;-65
2022/01/14 04:03:37;;;;;;;5.03;3.30;;;;;;;0.86;100.00;98624.14;1714910;81;21133;-65
2022/01/14 04:06:04;;;;;;;4.50;2.92;;;;;;;0.87;100.00;98620.33;1706750;80;21028;-62
2022/01/14 04:08:31;;;;;;;5.20;2.77;;;;;;;0.89;100.00;98613.30;1715524;81;21146;-65
2022/01/14 04:11:00;;;;;;;5.00;3.27;;;;;;;0.91;100.00;98613.27;1704601;82;21113;-68
2022/01/14 04:13:38;;;;;;;4.28;3.00;;;;;;;0.93;100.00;98608.38;1691525;81;21066;-63
2022/01/14 04:15:54;;;;;;;4.33;2.98;;;;;;;0.94;100.00;98614.06;1724511;80;21161;-65
2022/01/14 04:18:22;;;;;;;4.17;2.77;;;;;;;0.94;100.00;98604.56;1718762;80;21099;-65
2022/01/14 04:20:50;;;;;;;4.97;2.95;;;;;;;0.95;100.00;98602.67;1728596;81;21118;-67
2022/01/14 04:23:21;;;;;;;4.37;2.90;;;;;;;0.96;100.00;98603.75;1716691;81;21015;-65
2022/01/14 04:25:51;;;;;;;4.40;2.77;;;;;;;0.95;100.00;98598.07;1725123;81;21035;-67
2022/01/14 04:28:22;;;;;;;3.75;3.02;;;;;;;0.94;100.00;98602.39;1725029;82;21003;-65
2022/01/14 04:30:48;;;;;;;6.28;3.15;;;;;;;0.95;100.00;98594.00;1711811;81;21004;-66
2022/01/14 04:33:14;;;;;;;6.97;3.47;;;;;;;0.98;100.00;98592.62;1723492;81;21094;-65
2022/01/14 04:35:41;;;;;;;6.85;3.40;;;;;;;0.99;100.00;98598.87;1722827;81;21094;-64
2022/01/14 04:38:08;;;;;;;5.95;2.80;;;;;;;1.01;100.00;98601.55;1722179;81;21072;-65
2022/01/14 04:40:34;;;;;;;6.75;3.12;;;;;;;1.03;100.00;98595.84;1694433;83;22021;-64
2022/01/14 04:43:01;;;;;;;5.90;3.30;;;;;;;1.03;100.00;98596.66;1731992;80;21057;-64
2022/01/14 04:48:06;;;;;;;4.55;3.42;;;;;;;1.04;100.00;98590.13;1711044;80;21024;-65
2022/01/14 04:50:33;;;;;;;6.08;2.95;;;;;;;1.06;100.00;98589.85;1703962;80;21149;-65
2022/01/14 04:53:01;;;;;;;3.15;2.42;;;;;;;1.07;100.00;98582.81;1704631;82;21148;-62
2022/01/14 04:55:29;;;;;;;4.12;2.80;;;;;;;1.10;100.00;98590.93;1729823;81;21024;-63
2022/01/14 04:57:58;;;;;;;4.67;3.00;;;;;;;1.10;100.00;98592.28;1698051;83;21110;-66
2022/01/14 05:00:28;;;;;;;5.03;2.92;;;;;;;1.11;100.00;98589.83;1700240;83;21035;-66
2022/01/14 05:02:55;;;;;;;4.55;2.92;;;;;;;1.11;100.00;98573.55;1701190;82;21126;-67
2022/01/14 05:05:25;;;;;;;5.80;3.62;;;;;;;1.12;100.00;98573.01;1720148;82;21264;-64
2022/01/14 05:07:51;;;;;;;5.47;2.70;;;;;;;1.12;100.00;98573.83;1701179;82;21502;-66
2022/01/14 05:10:35;;;;;;;6.30;3.05;;;;;;;1.12;100.00;98561.62;1694729;82;21108;-67
2022/01/14 05:12:47;;;;;;;5.78;3.10;;;;;;;1.13;100.00;98559.16;1696976;82;21025;-64
2022/01/14 05:15:15;;;;;;;5.85;3.10;;;;;;;1.12;100.00;98557.55;1728791;81;21540;-66
2022/01/14 05:17:42;;;;;;;8.50;3.02;;;;;;;1.13;100.00;98558.34;1700483;81;21205;-65
2022/01/14 05:20:09;;;;;;;7.12;2.50;;;;;;;1.13;100.00;98565.12;1672778;83;21269;-66
2022/01/14 05:22:36;;;;;;;4.70;2.90;;;;;;;1.12;100.00;98554.02;1714063;82;21109;-65
2022/01/14 05:25:05;;;;;;;5.35;3.12;;;;;;;1.13;100.00;98552.91;1715129;82;22249;-65
2022/01/14 05:27:32;;;;;;;4.78;3.30;;;;;;;1.14;100.00;98547.23;1710600;82;21059;-65
2022/01/14 05:30:01;;;;;;;5.50;3.30;;;;;;;1.13;100.00;98544.23;1715144;82;21802;-67
2022/01/14 05:32:28;;;;;;;5.37;3.17;;;;;;;1.15;100.00;98534.45;1717823;82;21069;-65
2022/01/14 05:34:54;;;;;;;5.12;3.25;;;;;;;1.16;100.00;98531.45;1722400;80;21060;-65
2022/01/14 05:37:20;;;;;;;8.83;4.35;;;;;;;1.17;100.00;98524.95;1699018;82;21050;-65
2022/01/14 05:39:47;;;;;;;6.67;4.22;;;;;;;1.17;100.00;98518.16;1703427;80;21008;-64
2022/01/14 05:42:13;;;;;;;6.33;3.50;;;;;;;1.15;100.00;98498.63;1715970;82;21857;-66
2022/01/14 05:44:40;;;;;;;6.80;3.90;;;;;;;1.18;100.00;98502.67;1705112;82;21013;-64
2022/01/14 05:47:06;;;;;;;7.42;4.15;;;;;;;1.17;100.00;98494.28;1706590;82;21026;-64
2022/01/14 05:49:32;;;;;;;6.15;3.85;;;;;;;1.15;100.00;98494.56;1710055;82;21043;-65
2022/01/14 05:52:01;;;;;;;8.40;4.90;;;;;;;1.16;100.00;98490.74;1711167;81;21004;-65
2022/01/14 05:54:27;;;;;;;5.58;4.03;;;;;;;1.17;100.00;98486.95;1736441;81;21786;-63
2022/01/14 05:56:53;;;;;;;7.20;3.95;;;;;;;1.17;100.00;98489.67;1704444;81;21016;-67
2022/01/14 05:59:20;;;;;;;7.55;4.10;;;;;;;1.18;100.00;98480.42;1722516;80;21134;-66
2022/01/14 06:01:46;;;;;;;8.28;4.58;;;;;;;1.17;100.00;98482.88;1719974;80;21077;-65
2022/01/14 06:04:12;;;;;;;9.05;5.45;;;;;;;1.18;100.00;98482.31;1713373;81;21033;-65
2022/01/14 06:06:39;;;;;;;8.35;5.60;;;;;;;1.18;100.00;98476.89;1694557;82;21732;-66
2022/01/14 06:09:05;;;;;;;9.40;5.80;;;;;;;1.17;100.00;98478.81;1715491;81;21519;-65
2022/01/14 06:11:32;;;;;;;11.30;6.22;;;;;;;1.19;100.00;98473.10;1700857;82;21130;-64
2022/01/14 06:14:00;;;;;;;13.45;7.87;;;;;;;1.19;100.00;98481.23;1721449;81;21122;-64
2022/01/14 06:16:26;;;;;;;13.38;6.20;;;;;;;1.21;100.00;98467.64;1710240;81;21003;-64
2022/01/14 06:18:53;;;;;;;10.80;6.37;;;;;;;1.25;100.00;98459.73;1705694;83;21972;-65
2022/01/14 06:21:19;;;;;;;8.58;5.75;;;;;;;1.27;100.00;98450.77;1721710;81;21015;-66
2022/01/14 06:23:46;;;;;;;10.25;5.50;;;;;;;1.29;100.00;98443.70;1734642;81;21056;-65
2022/01/14 06:26:14;;;;;;;12.90;6.00;;;;;;;1.29;100.00;98456.73;1687826;83;22240;-66
2022/01/14 06:28:42;;;;;;;13.65;6.65;;;;;;;1.30;100.00;98452.09;1698586;82;21170;-65
2022/01/14 06:31:10;;;;;;;12.70;6.80;;;;;;;1.29;100.00;98440.98;1710241;81;21189;-64
2022/01/14 06:33:37;;;;;;;12.25;7.40;;;;;;;1.30;100.00;98431.20;1715008;81;21050;-65
2022/01/14 06:36:04;;;;;;;12.18;7.45;;;;;;;1.31;100.00;98427.95;1707102;81;21016;-64
2022/01/14 06:38:30;;;;;;;15.05;7.28;;;;;;;1.33;100.00;98435.27;1717643;82;21859;-66
2022/01/14 06:40:57;;;;;;;13.05;7.20;;;;;;;1.37;100.00;98416.48;1719968;81;21153;-65
2022/01/14 06:43:23;;;;;;;19.52;7.95;;;;;;;1.37;100.00;98423.27;1697263;81;21562;-63
2022/01/14 06:45:51;;;;;;;12.58;6.40;;;;;;;1.38;100.00;98412.69;1708961;82;21065;-65
2022/01/14 06:48:17;;;;;;;14.18;7.85;;;;;;;1.41;100.00;98401.25;1708595;82;21013;-67
2022/01/14 06:50:44;;;;;;;15.15;7.60;;;;;;;1.42;100.00;98388.73;1689316;82;21496;-66
2022/01/14 06:53:11;;;;;;;14.75;7.12;;;;;;;1.44;100.00;98378.41;1674557;83;20999;-66
2022/01/14 06:55:37;;;;;;;17.37;7.25;;;;;;;1.45;100.00;98371.08;1690643;81;21182;-65
2022/01/14 06:58:03;;;;;;;14.13;7.28;;;;;;;1.49;100.00;98365.86;1703610;83;21555;-66
2022/01/14 07:00:32;;;;;;;13.15;6.22;;;;;;;1.52;100.00;98363.95;1709131;83;21004;-65
2022/01/14 07:02:58;;;;;;;11.57;7.12;;;;;;;1.54;100.00;98356.30;1693980;82;21231;-66
2022/01/14 07:05:24;;;;;;;15.58;7.37;;;;;;;1.56;100.00;98347.33;1709824;83;21132;-66
2022/01/14 07:07:51;;;;;;;14.05;7.22;;;;;;;1.56;100.00;98336.47;1698573;83;21122;-64
2022/01/14 07:10:19;;;;;;;14.18;6.70;;;;;;;1.56;100.00;98321.53;1686223;83;21480;-67
2022/01/14 07:12:45;;;;;;;15.95;7.47;;;;;;;1.60;100.00;98310.90;1722105;81;21048;-66
2022/01/14 07:15:13;;;;;;;17.60;7.05;;;;;;;1.60;100.00;98322.58;1712938;81;21102;-63
2022/01/14 07:17:40;;;;;;;15.08;7.85;;;;;;;1.63;100.00;98336.94;1719773;82;21110;-64
2022/01/14 07:20:12;;;;;;;14.00;6.50;;;;;;;1.63;100.00;98353.23;1716744;82;23321;-66
2022/01/14 07:22:38;;;;;;;14.15;7.28;;;;;;;1.63;100.00;98343.72;1717184;82;21019;-66
2022/01/14 07:25:05;;;;;;;15.32;9.05;;;;;;;1.65;100.00;98347.50;1719588;81;21017;-66
2022/01/14 07:27:32;;;;;;;13.43;7.37;;;;;;;1.64;100.00;98338.54;1713985;81;21154;-64
2022/01/14 07:30:00;;;;;;;20.37;8.63;;;;;;;1.64;100.00;98331.75;1691564;82;21084;-65
2022/01/14 07:32:29;;;;;;;18.27;8.20;;;;;;;1.65;100.00;98326.59;1688434;82;21078;-63
2022/01/14 07:34:56;;;;;;;14.35;6.70;;;;;;;1.67;100.00;98332.52;1709578;82;21012;-66
2022/01/14 07:37:23;;;;;;;14.45;7.08;;;;;;;1.67;100.00;98327.66;1717261;82;21223;-66
2022/01/14 07:39:50;;;;;;;16.87;7.80;;;;;;;1.69;100.00;98322.19;1713829;82;21123;-64
2022/01/14 07:42:16;;;;;;;20.48;7.75;;;;;;;1.71;100.00;98306.95;1700149;82;21108;-65
2022/01/14 07:44:45;;;;;;;17.87;7.20;;;;;;;1.73;100.00;98302.05;1696815;81;21182;-63
2022/01/14 07:47:11;;;;;;;18.70;7.67;;;;;;;1.74;100.00;98301.50;1706757;81;21006;-67
2022/01/14 07:49:37;;;;;;;11.90;6.90;;;;;;;1.75;100.00;98314.80;1704458;83;20999;-66
2022/01/14 07:52:04;;;;;;;15.75;8.00;;;;;;;1.76;100.00;98309.61;1719961;81;20985;-66
2022/01/14 07:54:31;;;;;;;19.70;7.65;;;;;;;1.79;100.00;98303.59;1711552;83;21203;-66
2022/01/14 07:57:00;;;;;;;12.37;7.37;;;;;;;1.81;100.00;98303.30;1700732;82;21731;-65
2022/01/14 07:59:31;;;;;;;17.35;6.97;;;;;;;1.83;100.00;98292.95;1718298;81;21056;-65
2022/01/14 08:01:58;;;;;;;14.18;6.35;;;;;;;1.83;100.00;98311.97;1697556;81;20996;-65
2022/01/14 08:04:27;;;;;;;11.38;5.50;;;;;;;1.87;100.00;98298.61;1710698;81;21258;-66
2022/01/14 08:06:57;;;;;;;14.18;6.37;;;;;;;1.89;100.00;98278.22;1711951;83;21060;-64
2022/01/14 08:09:22;;;;;;;11.55;5.72;;;;;;;1.92;100.00;98274.91;1706031;83;21816;-64
2022/01/14 08:11:49;;;;;;;9.90;6.00;;;;;;;1.96;100.00;98266.17;1691092;81;21050;-64
2022/01/14 08:14:17;;;;;;;11.97;5.45;;;;;;;1.98;100.00;98258.54;1708758;82;21080;-64
2022/01/14 08:16:43;;;;;;;12.95;6.08;;;;;;;2.01;100.00;98239.74;1699150;82;21682;-64
2022/01/14 08:19:09;;;;;;;11.93;5.28;;;;;;;2.05;100.00;98226.34;1706633;82;21067;-66
2022/01/14 08:21:35;;;;;;;12.23;5.33;;;;;;;2.08;100.00;98214.91;1703522;81;21067;-64
2022/01/14 08:24:02;;;;;;;10.48;4.92;;;;;;;2.12;100.00;98221.89;1710078;82;21505;-65
2022/01/14 08:26:29;;;;;;;8.90;5.40;;;;;;;2.14;100.00;98217.80;1714419;82;21008;-67
2022/01/14 08:28:55;;;;;;;10.43;5.35;;;;;;;2.16;100.00;98200.64;1712891;81;21034;-68
2022/01/14 08:31:22;;;;;;;8.28;4.85;;;;;;;2.19;100.00;98195.97;1717560;81;21019;-65
2022/01/14 08:33:48;;;;;;;12.58;5.95;;;;;;;2.22;100.00;98187.76;1718223;81;21193;-64
2022/01/14 08:36:15;;;;;;;7.62;4.78;;;;;;;2.24;100.00;98195.07;1701943;83;21135;-65
2022/01/14 08:38:41;;;;;;;12.23;4.65;;;;;;;2.27;100.00;98199.12;1732479;81;20998;-66
2022/01/14 08:41:07;;;;;;;7.55;4.70;;;;;;;2.29;100.00;98180.58;1698664;82;21115;-65
2022/01/14 08:43:35;;;;;;;7.97;4.58;;;;;;;2.29;100.00;98172.42;1718435;82;21045;-64
2022/01/14 08:46:03;;;;;;;7.45;4.17;;;;;;;2.29;100.00;98169.70;1725543;82;21118;-64
2022/01/14 08:48:30;;;;;;;8.90;5.15;;;;;;;2.30;100.00;98164.55;1721512;82;21215;-67
2022/01/14 08:50:58;;;;;;;11.18;5.30;;;;;;;2.33;100.00;98173.45;1724557;82;21650;-65
2022/01/14 08:53:25;;;;;;;10.05;5.33;;;;;;;2.30;100.00;98157.75;1695050;82;21629;-64
2022/01/14 08:55:51;;;;;;;8.55;4.55;;;;;;;2.33;100.00;98159.05;1711678;82;21072;-67
2022/01/14 08:58:18;;;;;;;9.45;5.25;;;;;;;2.31;100.00;98142.49;1708040;82;21087;-66
2022/01/14 09:00:44;;;;;;;6.95;4.40;;;;;;;2.32;100.00;98136.48;1699352;82;21023;-63
2022/01/14 09:03:10;;;;;;;11.05;5.12;;;;;;;2.35;99.18;98114.70;1727854;80;21539;-66
2022/01/14 09:05:38;;;;;;;10.15;5.17;;;;;;;2.38;97.87;98131.23;1708803;83;21660;-67
2022/01/14 09:08:04;;;;;;;8.28;4.75;;;;;;;2.41;97.56;98125.73;1732353;81;21000;-66
2022/01/14 09:10:30;;;;;;;8.50;5.17;;;;;;;2.42;96.96;98130.08;1718738;81;21901;-66
2022/01/14 09:12:57;;;;;;;9.93;4.83;;;;;;;2.42;96.23;98118.63;1704265;82;21087;-65
2022/01/14 09:15:24;;;;;;;6.67;4.30;;;;;;;2.40;95.71;98109.98;1712490;81;21009;-66
2022/01/14 09:17:51;;;;;;;8.98;5.15;;;;;;;2.43;94.54;98118.91;1716789;82;21158;-66
2022/01/14 09:20:18;;;;;;;11.53;5.55;;;;;;;2.45;93.93;98101.47;1728568;81;21127;-64
2022/01/14 09:22:48;;;;;;;13.05;5.85;;;;;;;2.42;93.70;98111.83;1719650;81;21160;-64
2022/01/14 09:25:16;;;;;;;12.25;5.45;;;;;;;2.39;93.38;98092.05;1716253;81;21143;-66
2022/01/14 09:27:43;;;;;;;6.70;4.28;;;;;;;2.36;93.28;98089.12;1685459;82;21088;-66
2022/01/14 09:30:11;;;;;;;9.25;6.08;;;;;;;2.35;93.04;98097.84;1692896;82;21568;-65
2022/01/14 09:32:41;;;;;;;10.95;5.97;;;;;;;2.36;92.87;98102.71;1715672;81;21051;-66
2022/01/14 09:35:13;;;;;;;7.72;4.58;;;;;;;2.38;92.80;98095.06;1706163;83;21073;-66
2022/01/14 09:37:39;;;;;;;10.28;5.28;;;;;;;2.36;92.23;98087.22;1712442;82;21663;-66
2022/01/14 09:40:08;;;;;;;9.28;5.83;;;;;;;2.35;92.49;98073.92;1723459;81;21110;-66
2022/01/14 09:42:35;;;;;;;7.83;5.50;;;;;;;2.36;92.37;98070.91;1744053;81;21118;-65
2022/01/14 09:45:03;;;;;;;12.23;6.25;;;;;;;2.35;92.32;98064.41;1727927;81;21033;-64
2022/01/14 09:47:29;;;;;;;8.50;5.17;;;;;;;2.37;92.29;98058.13;1719933;81;21136;-64
2022/01/14 09:49:57;;;;;;;11.73;6.47;;;;;;;2.37;92.22;98052.69;1719066;81;21045;-67
2022/01/14 09:52:23;;;;;;;10.35;5.50;;;;;;;2.39;92.09;98051.27;1699994;81;21059;-63
2022/01/14 09:54:51;;;;;;;13.53;5.70;;;;;;;2.41;92.00;98034.09;1722981;80;22126;-64
2022/01/14 09:57:19;;;;;;;10.15;5.30;;;;;;;2.42;91.93;98047.94;1709834;81;20967;-65
2022/01/14 09:59:48;;;;;;;10.98;6.15;;;;;;;2.44;91.87;98040.83;1720978;81;21075;-65
2022/01/14 10:02:38;;;;;;;9.68;5.78;;;;;;;2.46;91.70;98033.19;1720496;81;21216;-66
2022/01/14 10:05:07;;;;;;;13.78;6.85;;;;;;;2.46;91.74;98020.16;1696715;83;21226;-66
2022/01/14 10:07:34;;;;;;;12.03;6.28;;;;;;;2.48;91.67;98013.30;1704119;83;21121;-66
2022/01/14 10:10:02;;;;;;;9.25;5.62;;;;;;;2.51;91.63;98009.16;1712367;81;21090;-67
2022/01/14 10:12:33;;;;;;;10.38;5.53;;;;;;;2.54;91.39;97995.77;1701241;82;21217;-65
2022/01/14 10:15:14;;;;;;;12.50;5.78;;;;;;;2.57;91.10;97993.55;1717197;81;20934;-65
2022/01/14 10:17:41;;;;;;;11.30;6.12;;;;;;;2.60;90.94;97988.86;1728650;81;21143;-65
2022/01/14 10:20:10;;;;;;;11.55;5.17;;;;;;;2.60;90.79;97985.59;1728710;80;21073;-68
2022/01/14 10:22:46;;;;;;;9.75;5.50;;;;;;;2.63;90.71;97996.41;1704413;81;21105;-66
2022/01/14 10:25:20;;;;;;;9.83;5.05;;;;;;;2.65;90.58;97977.33;1676804;83;21172;-67
2022/01/14 10:27:52;;;;;;;6.92;4.45;;;;;;;2.67;90.52;97977.02;1665038;83;21537;-67
2022/01/14 10:30:29;;;;;;;9.57;5.10;;;;;;;2.68;90.47;97978.07;1713094;82;21501;-67
2022/01/14 10:33:06;;;;;;;11.90;4.35;;;;;;;2.71;90.34;97953.55;1697636;81;21104;-66
2022/01/14 10:35:41;;;;;;;7.80;4.90;;;;;;;2.76;90.24;97945.82;1711212;82;21001;-65
2022/01/14 10:38:19;;;;;;;8.28;4.83;;;;;;;2.78;90.08;97934.08;1709030;82;21195;-66
2022/01/14 10:40:50;;;;;;;7.62;4.10;;;;;;;2.82;89.92;97921.45;1717367;81;20982;-66
2022/01/14 10:43:21;;;;;;;6.50;3.77;;;;;;;2.82;89.85;97920.10;1708135;81;21286;-65
2022/01/14 10:45:50;;;;;;;5.15;3.50;;;;;;;2.84;89.75;97904.28;1711299;81;21551;-66
2022/01/14 10:48:33;;;;;;;10.40;4.47;;;;;;;2.84;89.62;97897.47;1694827;82;21605;-65
2022/01/14 10:51:02;;;;;;;6.95;4.85;;;;;;;2.85;89.61;97884.11;1712205;81;21239;-67
2022/01/14 10:53:38;;;;;;;10.20;3.92;;;;;;;2.86;89.47;97895.26;1705823;82;21096;-65
2022/01/14 10:56:07;;;;;;;5.47;3.20;;;;;;;2.86;89.52;97872.68;1734659;81;21024;-65
2022/01/14 10:58:36;;;;;;;6.05;3.67;;;;;;;2.85;89.49;97856.90;1716487;81;21071;-67
2022/01/14 11:01:17;;;;;;;6.33;3.40;;;;;;;2.85;89.51;97850.67;1733468;81;21547;-66
2022/01/14 11:03:59;;;;;;;6.28;3.70;;;;;;;2.82;90.26;97828.95;1715374;81;21580;-67
2022/01/14 11:06:36;;;;;;;8.83;4.28;;;;;;;2.81;89.84;97836.88;1717268;81;21129;-66
2022/01/14 11:09:14;;;;;;;6.80;4.72;;;;;;;2.75;89.95;97825.31;1712576;81;21210;-67
2022/01/14 11:11:44;;;;;;;6.58;4.42;;;;;;;2.68;90.22;97821.67;1717527;82;21015;-66
2022/01/14 11:14:11;;;;;;;6.87;4.75;;;;;;;2.61;90.54;97810.41;1707634;80;21075;-66
2022/01/14 11:16:38;;;;;;;10.40;5.12;;;;;;;2.57;90.96;97793.13;1712851;81;21177;-64
2022/01/14 11:19:08;;;;;;;12.03;5.12;;;;;;;2.52;91.27;97791.33;1686654;83;21492;-66
2022/01/14 11:24:33;;;;;;;16.73;7.08;;;;;;;2.43;92.27;97800.78;1697765;82;21517;-65
2022/01/14 11:27:13;;;;;;;12.15;5.33;;;;;;;2.39;92.80;97817.45;1673785;84;21209;-67
2022/01/14 11:29:44;;;;;;;8.08;5.17;;;;;;;2.36;93.22;97778.64;1705886;81;21133;-66
2022/01/14 11:32:15;;;;;;;8.53;5.72;;;;;;;2.33;93.50;97758.06;1722442;81;21043;-67
2022/01/14 11:34:46;;;;;;;6.40;4.55;;;;;;;2.29;93.75;97755.16;1704749;80;21078;-66
2022/01/14 11:37:22;;;;;;;7.85;4.90;;;;;;;2.26;93.98;97752.52;1688093;82;21044;-68
2022/01/14 11:40:06;;;;;;;8.93;6.12;;;;;;;2.22;94.63;97731.70;1671171;83;21020;-66
2022/01/14 11:42:50;;;;;;;9.85;5.60;;;;;;;2.16;94.88;97733.72;1690537;82;21611;-66
2022/01/14 11:45:41;;;;;;;10.10;5.83;;;;;;;2.14;95.14;97730.50;1694296;82;21050;-67
2022/01/14 11:48:13;;;;;;;10.70;5.47;;;;;;;2.13;95.37;97730.27;1683477;83;21517;-65
2022/01/14 11:50:46;;;;;;;10.93;4.90;;;;;;;2.14;95.60;97735.39;1703145;81;21110;-66
2022/01/14 11:53:36;;;;;;;6.80;4.75;;;;;;;2.14;95.75;97724.52;1696464;81;21533;-66
2022/01/14 11:56:09;;;;;;;7.72;4.78;;;;;;;2.14;95.80;97723.71;1706258;82;21411;-66
2022/01/14 11:58:37;;;;;;;;;;;;;;;2.14;95.92;97716.38;1711500;82;21118;-68
2022/01/14 12:01:05;;;;;;;7.35;4.35;;;;;;;2.15;96.01;97701.66;1719233;83;20172;-65
2022/01/14 12:03:34;;;;;;;7.78;4.30;;;;;;;2.15;96.01;97694.86;1722263;81;21054;-66